Time;durP1;ratioP1;P1;durP2;ratioP2;P2;SDS_P1;SDS_P2;PMS_P1;PMS_P2;Temp;Humidity;BMP_temperature;BMP_pressure;BME280_temperature;BME280_humidity;BME280_pressure;Samples;Min_cycle;Max_cycle;Signal;HPM_P1;HPM_P2
2023/11/04 00:01:21;;;;;;;3.77;1.57;;;;;;;;;;5044767;28;20022;-80
2023/11/04 00:06:25;;;;;;;2.03;0.70;;;;;;;;;;5036568;28;20069;-82
2023/11/04 00:08:52;;;;;;;1.90;0.57;;;;;;;;;;5028321;28;20045;-82
2023/11/04 00:11:20;;;;;;;4.77;0.73;;;;;;;;;;5023964;28;20030;-82
2023/11/04 00:13:54;;;;;;;3.87;0.70;;;;;;;;;;5023493;28;20029;-83
2023/11/04 00:16:20;;;;;;;3.33;0.87;;;;;;;;;;5038677;28;20037;-81
2023/11/04 00:18:46;;;;;;;2.50;0.70;;;;;;;;;;5012791;28;20014;-80
2023/11/04 00:21:12;;;;;;;1.90;0.60;;;;;;;;;;5012627;28;20049;-80
2023/11/04 00:23:38;;;;;;;1.47;0.50;;;;;;;;;;5016239;28;20020;-78
2023/11/04 00:26:04;;;;;;;1.10;0.40;;;;;;;;;;5017446;28;20025;-78
2023/11/04 00:28:38;;;;;;;1.17;0.50;;;;;;;;;;5019035;28;20021;-78
2023/11/04 00:31:04;;;;;;;0.87;0.50;;;;;;;;;;5034099;28;20117;-80
2023/11/04 00:33:31;;;;;;;4.83;0.70;;;;;;;;;;5012258;28;20053;-79
2023/11/04 00:35:57;;;;;;;4.07;0.60;;;;;;;;;;5011920;28;20207;-79
2023/11/04 00:38:23;;;;;;;0.53;0.30;;;;;;;;;;5035091;28;20056;-77
2023/11/04 00:40:50;;;;;;;1.23;0.40;;;;;;;;;;5018536;28;20014;-80
2023/11/04 01:14:04;;;;;;;0.40;0.20;;;;;;;;;;4953078;29;20046;-75
2023/11/04 01:16:38;;;;;;;0.50;0.30;;;;;;;;;;4952381;29;20048;-78
2023/11/04 01:19:04;;;;;;;0.38;0.20;;;;;;;;;;4951870;29;20034;-80
2023/11/04 01:21:31;;;;;;;1.77;0.20;;;;;;;;;;4949623;29;20035;-77
2023/11/04 01:23:57;;;;;;;1.17;0.20;;;;;;;;;;4936577;29;20032;-77
2023/11/04 01:26:23;;;;;;;0.50;0.20;;;;;;;;;;4939661;29;20099;-78
2023/11/04 01:28:52;;;;;;;1.97;0.30;;;;;;;;;;4938967;29;20078;-77
2023/11/04 01:31:20;;;;;;;1.63;0.40;;;;;;;;;;4937280;29;20016;-78
2023/11/04 01:33:46;;;;;;;0.30;0.20;;;;;;;;;;4936653;29;20004;-76
2023/11/04 01:36:12;;;;;;;1.00;0.40;;;;;;;;;;4952096;29;20044;-81
2023/11/04 01:38:38;;;;;;;0.70;0.50;;;;;;;;;;4938143;29;20051;-80
2023/11/04 01:41:07;;;;;;;0.40;0.30;;;;;;;;;;4954179;29;20074;-76
2023/11/04 01:43:33;;;;;;;1.00;0.60;;;;;;;;;;4939239;29;20051;-78
2023/11/04 01:46:05;;;;;;;1.13;0.57;;;;;;;;;;4934919;29;20028;-78
2023/11/04 01:48:31;;;;;;;0.75;0.43;;;;;;;;;;5012151;28;20041;-78
2023/11/04 01:50:58;;;;;;;1.37;0.50;;;;;;;;;;5016440;28;20022;-76
2023/11/04 01:53:24;;;;;;;1.23;0.37;;;;;;;;;;5016644;28;20034;-78
2023/11/04 01:55:53;;;;;;;0.47;0.30;;;;;;;;;;5016927;28;20025;-79
2023/11/04 01:58:22;;;;;;;1.30;0.20;;;;;;;;;;5015941;28;20641;-77
2023/11/04 02:00:49;;;;;;;0.40;0.40;;;;;;;;;;5033220;28;20114;-79
2023/11/04 02:03:17;;;;;;;0.90;0.20;;;;;;;;;;5015927;28;20032;-78
2023/11/04 02:05:43;;;;;;;0.73;0.40;;;;;;;;;;5016617;28;20021;-80
2023/11/04 02:08:09;;;;;;;1.07;0.77;;;;;;;;;;5016654;28;20482;-80
2023/11/04 02:10:35;;;;;;;1.63;0.60;;;;;;;;;;5016070;28;20069;-78
2023/11/04 02:13:04;;;;;;;0.83;0.37;;;;;;;;;;5015986;28;20041;-79
2023/11/04 02:15:30;;;;;;;0.60;0.40;;;;;;;;;;5012620;28;20093;-79
2023/11/04 02:17:57;;;;;;;0.90;0.50;;;;;;;;;;5016467;28;20025;-79
2023/11/04 02:20:25;;;;;;;0.90;0.40;;;;;;;;;;5016889;28;20022;-79
2023/11/04 02:22:52;;;;;;;1.83;0.57;;;;;;;;;;5010426;28;20036;-78
2023/11/04 02:25:18;;;;;;;0.73;0.30;;;;;;;;;;5016395;28;20013;-79
2023/11/04 02:27:44;;;;;;;1.10;0.20;;;;;;;;;;5033441;28;20036;-76
2023/11/04 02:30:13;;;;;;;0.80;0.40;;;;;;;;;;5015933;28;20034;-77
2023/11/04 02:32:39;;;;;;;0.57;0.30;;;;;;;;;;5011296;28;20029;-78
2023/11/04 02:35:06;;;;;;;0.60;0.30;;;;;;;;;;5012005;28;20037;-78
2023/11/04 02:37:32;;;;;;;1.43;0.40;;;;;;;;;;5012496;28;20034;-79
2023/11/04 02:40:03;;;;;;;0.60;0.30;;;;;;;;;;5026964;28;20031;-80
2023/11/04 02:42:31;;;;;;;;;;;;;;;;;;5028431;28;20026;-77
2023/11/04 02:44:57;;;;;;;1.20;0.60;;;;;;;;;;5016656;28;19961;-79
2023/11/04 02:47:23;;;;;;;0.30;0.30;;;;;;;;;;5015822;28;20040;-79
2023/11/04 02:49:49;;;;;;;1.03;0.30;;;;;;;;;;5015071;28;20033;-77
2023/11/04 02:52:26;;;;;;;0.77;0.43;;;;;;;;;;5015622;28;20040;-77
2023/11/04 02:54:52;;;;;;;1.70;0.50;;;;;;;;;;5012540;28;20030;-77
2023/11/04 02:57:20;;;;;;;0.50;0.30;;;;;;;;;;5015819;28;20033;-79
2023/11/04 02:59:46;;;;;;;1.67;0.43;;;;;;;;;;5010832;28;20030;-79
2023/11/04 03:02:12;;;;;;;2.70;0.40;;;;;;;;;;5015011;28;20022;-77
2023/11/04 03:04:39;;;;;;;0.40;0.20;;;;;;;;;;5015195;28;20049;-77
2023/11/04 03:07:05;;;;;;;0.90;0.43;;;;;;;;;;5015203;28;20026;-80
2023/11/04 03:09:31;;;;;;;0.40;0.20;;;;;;;;;;5015346;28;20033;-78
2023/11/04 03:11:57;;;;;;;2.30;0.40;;;;;;;;;;5012620;28;20240;-78
2023/11/04 03:14:24;;;;;;;0.90;0.30;;;;;;;;;;5031457;28;20029;-77
2023/11/04 03:16:51;;;;;;;1.60;0.30;;;;;;;;;;5014166;28;20041;-79
2023/11/04 03:19:17;;;;;;;2.20;0.40;;;;;;;;;;5008873;28;20037;-79
2023/11/04 03:21:44;;;;;;;1.43;1.30;;;;;;;;;;5029613;28;20014;-78
2023/11/04 03:24:10;;;;;;;2.00;0.40;;;;;;;;;;5012161;28;20107;-79
2023/11/04 03:26:36;;;;;;;0.80;0.40;;;;;;;;;;5009504;28;20022;-77
2023/11/04 03:29:02;;;;;;;2.57;0.47;;;;;;;;;;5014136;28;20029;-78
2023/11/04 03:31:28;;;;;;;1.20;0.50;;;;;;;;;;5009785;28;20018;-79
2023/11/04 03:33:54;;;;;;;0.97;0.40;;;;;;;;;;5014669;28;20014;-77
2023/11/04 03:36:20;;;;;;;0.90;0.40;;;;;;;;;;5030656;28;20069;-78
2023/11/04 03:38:49;;;;;;;1.00;0.33;;;;;;;;;;5012431;28;20026;-77
2023/11/04 03:41:15;;;;;;;2.47;0.50;;;;;;;;;;5030493;28;20040;-77
2023/11/04 03:43:41;;;;;;;0.93;0.30;;;;;;;;;;5031139;28;20059;-78
2023/11/04 03:46:07;;;;;;;1.40;0.47;;;;;;;;;;5030527;28;20132;-77
2023/11/04 03:48:33;;;;;;;5.40;0.67;;;;;;;;;;5016146;28;20049;-79
2023/11/04 03:50:59;;;;;;;1.70;0.37;;;;;;;;;;5018037;28;20015;-79
2023/11/04 03:53:25;;;;;;;1.20;0.50;;;;;;;;;;5018165;28;20047;-79
2023/11/04 03:55:52;;;;;;;0.60;0.37;;;;;;;;;;5019202;28;20048;-78
2023/11/04 03:58:20;;;;;;;3.77;0.50;;;;;;;;;;5019766;28;20097;-76
2023/11/04 04:00:46;;;;;;;1.50;0.50;;;;;;;;;;5034862;28;20010;-79
2023/11/04 04:03:12;;;;;;;0.63;0.40;;;;;;;;;;5019204;28;20025;-80
2023/11/04 04:05:38;;;;;;;1.00;0.30;;;;;;;;;;5016860;28;20049;-81
2023/11/04 04:08:07;;;;;;;2.73;0.47;;;;;;;;;;5016563;28;20030;-78
2023/11/04 04:10:36;;;;;;;3.23;0.57;;;;;;;;;;5034845;28;20030;-76
2023/11/04 04:13:02;;;;;;;1.83;0.47;;;;;;;;;;5036149;28;20037;-80
2023/11/04 04:15:28;;;;;;;1.60;0.40;;;;;;;;;;5013283;28;20025;-79
2023/11/04 04:17:56;;;;;;;1.20;0.50;;;;;;;;;;5018581;28;20042;-78
2023/11/04 04:20:22;;;;;;;0.70;0.33;;;;;;;;;;5013895;28;20007;-77
2023/11/04 04:22:48;;;;;;;2.10;0.57;;;;;;;;;;5012457;28;20041;-79
2023/11/04 04:25:14;;;;;;;2.47;0.40;;;;;;;;;;5018279;28;20037;-78
2023/11/04 04:27:43;;;;;;;1.83;0.50;;;;;;;;;;5034180;28;20030;-77
2023/11/04 04:30:10;;;;;;;1.50;0.40;;;;;;;;;;5018027;28;20034;-80
2023/11/04 04:32:38;;;;;;;0.67;0.40;;;;;;;;;;5018710;28;20224;-78
2023/11/04 04:35:07;;;;;;;1.17;0.47;;;;;;;;;;5011921;28;20060;-78
2023/11/04 04:37:34;;;;;;;0.97;0.40;;;;;;;;;;5012326;28;20030;-78
2023/11/04 04:40:00;;;;;;;0.97;0.57;;;;;;;;;;5013478;28;20169;-77
2023/11/04 04:42:26;;;;;;;1.60;0.60;;;;;;;;;;5020026;28;20038;-79
2023/11/04 04:44:52;;;;;;;1.07;0.50;;;;;;;;;;5022375;28;20036;-82
2023/11/04 04:47:21;;;;;;;2.00;0.50;;;;;;;;;;5020879;28;20023;-83
2023/11/04 04:49:47;;;;;;;1.87;0.70;;;;;;;;;;5017357;28;20020;-80
2023/11/04 04:52:13;;;;;;;2.27;1.17;;;;;;;;;;5022754;28;20021;-83
2023/11/04 04:54:39;;;;;;;2.03;1.00;;;;;;;;;;5023229;28;20026;-83
2023/11/04 04:57:05;;;;;;;1.80;0.80;;;;;;;;;;5019301;28;20022;-81
2023/11/04 04:59:32;;;;;;;2.57;0.83;;;;;;;;;;5022279;28;20014;-81
2023/11/04 05:01:58;;;;;;;4.17;1.00;;;;;;;;;;5022395;28;20030;-81
2023/11/04 05:04:26;;;;;;;1.50;0.50;;;;;;;;;;5023246;28;20032;-82
2023/11/04 05:06:52;;;;;;;0.93;0.50;;;;;;;;;;5022366;28;20089;-81
2023/11/04 05:09:21;;;;;;;1.17;0.60;;;;;;;;;;5022846;28;20033;-82
2023/11/04 05:11:47;;;;;;;3.33;0.80;;;;;;;;;;5037331;28;20054;-81
2023/11/04 05:14:15;;;;;;;1.10;0.67;;;;;;;;;;5035485;28;20030;-82
2023/11/04 05:16:41;;;;;;;0.60;0.30;;;;;;;;;;5029119;28;20032;-82
2023/11/04 05:19:07;;;;;;;3.40;0.67;;;;;;;;;;5023048;28;20037;-79
2023/11/04 05:21:34;;;;;;;1.47;0.50;;;;;;;;;;5022683;28;20010;-83
2023/11/04 05:24:00;;;;;;;3.30;0.50;;;;;;;;;;5035417;28;20014;-83
2023/11/04 05:26:29;;;;;;;0.97;0.63;;;;;;;;;;5040284;28;20030;-83
2023/11/04 05:28:57;;;;;;;1.07;0.40;;;;;;;;;;5023150;28;20022;-84
2023/11/04 05:31:23;;;;;;;0.93;0.50;;;;;;;;;;5021805;28;20045;-80
2023/11/04 05:33:49;;;;;;;0.67;0.40;;;;;;;;;;5039350;28;20049;-82
2023/11/04 05:36:18;;;;;;;1.47;0.73;;;;;;;;;;5029990;28;20077;-82
2023/11/04 05:38:44;;;;;;;4.43;0.83;;;;;;;;;;5022179;28;20024;-81
2023/11/04 05:41:10;;;;;;;1.50;0.80;;;;;;;;;;5022645;28;20010;-83
2023/11/04 05:43:38;;;;;;;1.20;0.43;;;;;;;;;;5019851;28;20010;-82
2023/11/04 05:46:09;;;;;;;1.23;0.60;;;;;;;;;;5022217;28;20541;-82
2023/11/04 05:48:38;;;;;;;1.17;0.70;;;;;;;;;;5013288;28;20097;-82
2023/11/04 05:51:04;;;;;;;1.43;0.50;;;;;;;;;;5013925;28;20082;-82
2023/11/04 05:53:33;;;;;;;1.47;0.97;;;;;;;;;;5032210;28;20030;-80
2023/11/04 05:55:59;;;;;;;1.70;0.40;;;;;;;;;;5038688;28;20018;-83
2023/11/04 05:58:25;;;;;;;1.70;0.73;;;;;;;;;;5038762;28;20014;-82
2023/11/04 06:00:51;;;;;;;2.30;0.50;;;;;;;;;;5020968;28;20041;-81
2023/11/04 06:03:17;;;;;;;2.03;0.40;;;;;;;;;;5021560;28;20077;-82
2023/11/04 06:05:43;;;;;;;0.70;0.50;;;;;;;;;;5022600;28;20061;-82
2023/11/04 06:08:09;;;;;;;2.03;1.00;;;;;;;;;;5021494;28;20037;-83
2023/11/04 06:10:37;;;;;;;4.77;1.13;;;;;;;;;;5018265;28;20030;-82
2023/11/04 06:13:03;;;;;;;2.20;0.53;;;;;;;;;;5013602;28;20030;-82
2023/11/04 06:15:30;;;;;;;0.80;0.40;;;;;;;;;;5015350;28;20113;-83
2023/11/04 06:17:56;;;;;;;2.43;0.83;;;;;;;;;;5019625;28;20041;-79
2023/11/04 06:20:25;;;;;;;2.73;0.80;;;;;;;;;;5010378;28;20020;-78
2023/11/04 06:22:52;;;;;;;1.10;0.43;;;;;;;;;;5016132;28;20030;-77
2023/11/04 06:25:18;;;;;;;0.50;0.30;;;;;;;;;;5014445;28;20033;-80
2023/11/04 06:27:44;;;;;;;0.60;0.40;;;;;;;;;;5011574;28;20014;-79
2023/11/04 06:30:18;;;;;;;1.67;0.50;;;;;;;;;;5011449;28;20045;-78
2023/11/04 06:32:44;;;;;;;1.57;0.40;;;;;;;;;;5031392;28;20014;-80
2023/11/04 06:35:12;;;;;;;2.43;0.40;;;;;;;;;;5015741;28;20041;-79
2023/11/04 06:37:38;;;;;;;1.03;0.47;;;;;;;;;;5031389;28;20037;-80
2023/11/04 06:40:09;;;;;;;2.27;0.70;;;;;;;;;;5014804;28;20022;-78
2023/11/04 06:42:35;;;;;;;1.53;0.50;;;;;;;;;;5010840;28;20013;-78
2023/11/04 06:45:04;;;;;;;1.40;0.20;;;;;;;;;;5015957;28;20026;-78
2023/11/04 06:47:30;;;;;;;1.00;0.40;;;;;;;;;;5014817;28;20041;-79
2023/11/04 06:49:57;;;;;;;1.57;0.30;;;;;;;;;;5014905;28;20030;-79
2023/11/04 06:52:26;;;;;;;0.47;0.30;;;;;;;;;;5014860;28;20050;-76
2023/11/04 06:54:52;;;;;;;1.43;0.43;;;;;;;;;;5010704;28;20041;-81
2023/11/04 06:57:18;;;;;;;3.67;0.60;;;;;;;;;;5015416;28;20030;-79
2023/11/04 06:59:44;;;;;;;0.93;0.40;;;;;;;;;;5015114;28;20041;-78
2023/11/04 07:02:10;;;;;;;2.00;0.43;;;;;;;;;;5015080;28;20018;-79
2023/11/04 07:04:36;;;;;;;1.50;0.67;;;;;;;;;;5014947;28;20018;-79
2023/11/04 07:07:05;;;;;;;1.27;0.43;;;;;;;;;;5014643;28;20018;-78
2023/11/04 07:09:34;;;;;;;1.40;0.43;;;;;;;;;;5015810;28;20025;-79
2023/11/04 07:12:02;;;;;;;1.43;0.50;;;;;;;;;;5014330;28;20033;-78
2023/11/04 07:14:31;;;;;;;1.20;0.60;;;;;;;;;;5032939;28;20029;-79
2023/11/04 07:17:00;;;;;;;2.73;0.60;;;;;;;;;;5014555;28;20041;-78
2023/11/04 07:19:28;;;;;;;1.40;0.70;;;;;;;;;;5015669;28;20045;-79
2023/11/04 07:21:56;;;;;;;1.80;0.80;;;;;;;;;;5015278;28;20044;-78
2023/11/04 07:24:22;;;;;;;3.00;1.10;;;;;;;;;;5016161;28;20378;-79
2023/11/04 07:26:51;;;;;;;3.43;0.90;;;;;;;;;;5032479;28;20045;-78
2023/11/04 07:29:19;;;;;;;1.53;0.70;;;;;;;;;;5014936;28;20026;-79
2023/11/04 07:31:47;;;;;;;2.93;1.00;;;;;;;;;;5014819;28;20018;-78
2023/11/04 07:34:13;;;;;;;1.63;0.67;;;;;;;;;;5033537;28;20018;-79
2023/11/04 07:36:39;;;;;;;2.60;0.90;;;;;;;;;;5015912;28;20036;-77
2023/11/04 07:39:06;;;;;;;1.13;0.50;;;;;;;;;;5012455;28;20014;-78
2023/11/04 07:41:39;;;;;;;2.33;1.00;;;;;;;;;;5008080;28;20034;-80
2023/11/04 07:44:05;;;;;;;2.25;0.75;;;;;;;;;;5033632;28;20029;-78
2023/11/04 07:46:31;;;;;;;1.60;0.60;;;;;;;;;;5014113;28;20048;-78
2023/11/04 07:48:57;;;;;;;2.50;0.40;;;;;;;;;;5032103;28;20042;-77
2023/11/04 07:51:26;;;;;;;1.73;0.67;;;;;;;;;;5032472;28;20037;-77
2023/11/04 07:53:52;;;;;;;1.77;0.73;;;;;;;;;;5011497;28;20014;-77
2023/11/04 07:56:21;;;;;;;1.10;0.50;;;;;;;;;;5016363;28;20029;-77
2023/11/04 07:58:49;;;;;;;1.40;0.57;;;;;;;;;;5015243;28;20053;-77
2023/11/04 08:01:33;;;;;;;1.53;0.50;;;;;;;;;;5015140;28;20042;-80
2023/11/04 08:03:59;;;;;;;1.77;0.50;;;;;;;;;;5016592;28;20026;-79
2023/11/04 08:06:27;;;;;;;1.90;0.77;;;;;;;;;;5016074;28;20057;-78
2023/11/04 08:08:53;;;;;;;3.03;0.50;;;;;;;;;;5010397;28;20044;-77
2023/11/04 08:11:22;;;;;;;4.80;0.60;;;;;;;;;;5015152;28;20034;-78
2023/11/04 08:13:50;;;;;;;1.83;0.60;;;;;;;;;;5015755;28;20053;-79
2023/11/04 08:16:18;;;;;;;1.20;0.70;;;;;;;;;;5014091;28;20090;-78
2023/11/04 08:18:47;;;;;;;1.83;0.50;;;;;;;;;;5014826;28;20030;-79
2023/11/04 08:21:20;;;;;;;1.73;0.60;;;;;;;;;;5015153;28;20029;-80
2023/11/04 08:23:46;;;;;;;2.42;1.20;;;;;;;;;;5032154;28;20020;-79
2023/11/04 08:26:12;;;;;;;3.53;0.67;;;;;;;;;;5009940;28;20062;-78
2023/11/04 08:28:38;;;;;;;1.87;0.60;;;;;;;;;;5011752;28;20038;-77
2023/11/04 08:31:04;;;;;;;1.43;0.57;;;;;;;;;;5008867;28;20029;-77
2023/11/04 08:33:30;;;;;;;2.80;0.70;;;;;;;;;;5033628;28;20032;-77
2023/11/04 08:35:58;;;;;;;1.77;0.67;;;;;;;;;;5033084;28;20014;-78
2023/11/04 08:38:29;;;;;;;1.70;0.60;;;;;;;;;;5017414;28;20010;-77
2023/11/04 08:40:55;;;;;;;2.77;0.67;;;;;;;;;;5019440;28;20042;-77
2023/11/04 08:43:23;;;;;;;1.27;0.47;;;;;;;;;;5016410;28;20057;-77
2023/11/04 08:45:49;;;;;;;1.60;0.40;;;;;;;;;;5035750;28;20002;-79
2023/11/04 08:48:15;;;;;;;0.93;0.40;;;;;;;;;;5018914;28;20089;-77
2023/11/04 08:50:42;;;;;;;1.23;0.80;;;;;;;;;;5019131;28;20059;-77
2023/11/04 08:53:08;;;;;;;4.20;0.67;;;;;;;;;;5015871;28;20080;-80
2023/11/04 08:55:34;;;;;;;0.70;0.50;;;;;;;;;;5019129;28;20086;-78
2023/11/04 08:58:00;;;;;;;2.27;0.60;;;;;;;;;;5017800;28;20013;-78
2023/11/04 09:00:26;;;;;;;0.80;0.43;;;;;;;;;;5019663;28;20128;-78
2023/11/04 09:02:52;;;;;;;1.70;0.67;;;;;;;;;;5018598;28;20076;-77
2023/11/04 09:05:21;;;;;;;1.97;0.90;;;;;;;;;;5018287;28;20026;-77
2023/11/04 09:07:49;;;;;;;4.17;0.63;;;;;;;;;;5016657;28;20026;-78
2023/11/04 09:10:18;;;;;;;1.93;1.33;;;;;;;;;;5018331;28;20030;-77
2023/11/04 09:12:46;;;;;;;2.10;1.07;;;;;;;;;;5018628;28;20025;-77
2023/11/04 09:15:12;;;;;;;1.43;0.90;;;;;;;;;;5018985;28;20101;-78
2023/11/04 09:17:38;;;;;;;3.13;0.77;;;;;;;;;;5014165;28;20045;-78
2023/11/04 09:20:13;;;;;;;2.50;1.00;;;;;;;;;;5015986;28;20026;-77
2023/11/04 09:22:41;;;;;;;3.57;0.60;;;;;;;;;;5034878;28;20041;-78
2023/11/04 09:25:10;;;;;;;2.17;1.03;;;;;;;;;;5033513;28;20018;-79
2023/11/04 09:27:36;;;;;;;1.43;0.53;;;;;;;;;;5018365;28;20010;-77
2023/11/04 09:30:02;;;;;;;3.43;1.13;;;;;;;;;;5016922;28;20030;-78
2023/11/04 09:32:28;;;;;;;1.37;0.87;;;;;;;;;;5016380;28;20038;-77
2023/11/04 09:34:56;;;;;;;1.37;0.77;;;;;;;;;;5018287;28;20022;-78
2023/11/04 09:37:22;;;;;;;3.83;1.33;;;;;;;;;;5018155;28;20057;-77
2023/11/04 09:39:48;;;;;;;1.23;0.73;;;;;;;;;;5013619;28;20041;-76
2023/11/04 09:42:14;;;;;;;2.07;0.57;;;;;;;;;;5033923;28;20026;-78
2023/11/04 09:44:49;;;;;;;1.70;0.60;;;;;;;;;;5017621;28;20069;-77
2023/11/04 09:47:15;;;;;;;0.97;0.47;;;;;;;;;;5011504;28;20021;-79
2023/11/04 09:49:41;;;;;;;2.23;1.33;;;;;;;;;;5013939;28;20034;-78
2023/11/04 09:52:10;;;;;;;2.77;0.50;;;;;;;;;;5033653;28;20227;-77
2023/11/04 09:54:36;;;;;;;3.67;0.93;;;;;;;;;;5018177;28;20035;-77
2023/11/04 09:57:06;;;;;;;3.77;0.77;;;;;;;;;;5033743;28;20052;-80
2023/11/04 09:59:40;;;;;;;3.00;1.00;;;;;;;;;;5014444;28;20049;-78
2023/11/04 10:02:12;;;;;;;1.37;0.70;;;;;;;;;;5017814;28;20034;-78
2023/11/04 10:04:44;;;;;;;2.28;0.85;;;;;;;;;;5032413;28;20018;-77
2023/11/04 10:07:10;;;;;;;1.30;0.50;;;;;;;;;;5018112;28;20022;-78
2023/11/04 10:09:37;;;;;;;7.90;0.80;;;;;;;;;;5017014;28;20053;-76
2023/11/04 10:12:04;;;;;;;3.90;0.60;;;;;;;;;;5033889;28;20038;-77
2023/11/04 10:14:30;;;;;;;5.20;0.93;;;;;;;;;;5011963;28;20026;-76
2023/11/04 10:16:57;;;;;;;3.33;1.07;;;;;;;;;;5027054;28;20021;-76
2023/11/04 10:19:23;;;;;;;2.20;0.80;;;;;;;;;;5013027;28;20014;-76
2023/11/04 10:21:49;;;;;;;5.83;0.83;;;;;;;;;;5034132;28;20126;-78
2023/11/04 10:24:16;;;;;;;4.70;0.60;;;;;;;;;;5014248;28;20022;-76
2023/11/04 10:26:45;;;;;;;2.83;0.50;;;;;;;;;;5014358;28;20109;-78
2023/11/04 10:29:11;;;;;;;3.70;0.77;;;;;;;;;;5015044;28;20045;-76
2023/11/04 10:31:41;;;;;;;2.67;0.50;;;;;;;;;;5011575;28;20014;-76
2023/11/04 10:34:10;;;;;;;3.47;0.90;;;;;;;;;;5015961;28;20044;-77
2023/11/04 10:36:37;;;;;;;4.63;1.43;;;;;;;;;;5031821;28;20007;-77
2023/11/04 10:39:07;;;;;;;4.43;1.00;;;;;;;;;;5015940;28;20022;-76
2023/11/04 10:41:52;;;;;;;4.07;1.37;;;;;;;;;;5016710;28;20053;-77
2023/11/04 10:44:21;;;;;;;3.57;0.87;;;;;;;;;;5022344;28;20014;-78
2023/11/04 10:47:08;;;;;;;2.23;0.60;;;;;;;;;;5022835;28;20037;-78
2023/11/04 10:49:41;;;;;;;6.53;1.37;;;;;;;;;;5017618;28;20018;-76
2023/11/04 10:52:13;;;;;;;3.00;1.17;;;;;;;;;;5023836;28;20121;-77
2023/11/04 10:54:43;;;;;;;6.70;0.90;;;;;;;;;;5036506;28;20006;-79
2023/11/04 10:57:09;;;;;;;2.40;0.97;;;;;;;;;;5020193;28;20021;-78
2023/11/04 10:59:53;;;;;;;3.80;0.87;;;;;;;;;;5022371;28;20010;-79
2023/11/04 11:02:19;;;;;;;5.03;1.33;;;;;;;;;;5023983;28;20090;-77
2023/11/04 11:04:47;;;;;;;4.93;1.00;;;;;;;;;;5029256;28;20021;-77
2023/11/04 11:07:15;;;;;;;3.77;1.03;;;;;;;;;;5022357;28;20014;-77
2023/11/04 11:09:41;;;;;;;3.70;1.20;;;;;;;;;;5021939;28;20102;-76
2023/11/04 11:12:10;;;;;;;4.17;1.27;;;;;;;;;;5018393;28;20023;-80
2023/11/04 11:14:37;;;;;;;2.40;1.10;;;;;;;;;;5017951;28;20021;-79
2023/11/04 11:17:06;;;;;;;3.60;1.20;;;;;;;;;;5010751;28;20038;-79
2023/11/04 11:19:52;;;;;;;5.03;1.30;;;;;;;;;;5027092;28;20007;-82
2023/11/04 11:22:25;;;;;;;5.47;1.03;;;;;;;;;;5013365;28;20066;-82
2023/11/04 11:24:59;;;;;;;7.50;1.63;;;;;;;;;;5007283;28;20186;-81
2023/11/04 11:27:30;;;;;;;4.67;1.57;;;;;;;;;;5016400;28;20066;-82
2023/11/04 11:30:04;;;;;;;3.47;1.30;;;;;;;;;;5012760;28;20089;-82
2023/11/04 11:32:34;;;;;;;5.60;1.20;;;;;;;;;;5010943;28;20030;-80
2023/11/04 11:35:00;;;;;;;5.50;2.27;;;;;;;;;;5016567;28;20026;-82
2023/11/04 11:37:29;;;;;;;6.03;1.73;;;;;;;;;;5017886;28;20025;-82
2023/11/04 11:39:58;;;;;;;5.83;1.97;;;;;;;;;;5019877;28;20022;-81
2023/11/04 11:42:27;;;;;;;4.37;1.43;;;;;;;;;;5017661;28;20041;-83
2023/11/04 11:44:56;;;;;;;4.63;1.17;;;;;;;;;;5017682;28;20030;-83
2023/11/04 11:47:25;;;;;;;6.97;2.23;;;;;;;;;;5027703;28;20048;-84
2023/11/04 11:49:51;;;;;;;6.80;2.40;;;;;;;;;;5038024;28;20030;-83
2023/11/04 11:52:17;;;;;;;8.43;3.87;;;;;;;;;;5018267;28;20060;-82
2023/11/04 11:54:44;;;;;;;7.03;2.50;;;;;;;;;;5016138;28;20026;-82
2023/11/04 11:57:11;;;;;;;4.47;1.60;;;;;;;;;;5015869;28;20034;-82
2023/11/04 11:59:40;;;;;;;4.80;2.83;;;;;;;;;;5003180;28;20045;-81
2023/11/04 12:02:10;;;;;;;3.77;1.60;;;;;;;;;;5015149;28;20022;-83
2023/11/04 12:04:36;;;;;;;4.70;2.90;;;;;;;;;;5026962;28;20026;-83
2023/11/04 12:07:02;;;;;;;2.63;1.30;;;;;;;;;;5017291;28;20074;-82
2023/11/04 12:09:29;;;;;;;5.47;2.10;;;;;;;;;;5020356;28;20120;-82
2023/11/04 12:11:55;;;;;;;3.30;1.50;;;;;;;;;;5018106;28;20044;-81
2023/11/04 12:14:24;;;;;;;7.17;2.30;;;;;;;;;;5024917;28;20030;-82
2023/11/04 12:16:50;;;;;;;4.00;1.40;;;;;;;;;;5023387;28;20022;-83
2023/11/04 12:19:16;;;;;;;4.67;2.30;;;;;;;;;;5016892;28;20036;-77
2023/11/04 12:21:42;;;;;;;3.03;1.30;;;;;;;;;;5010760;28;20056;-78
2023/11/04 12:33:26;;;;;;;5.07;0.97;;;;;;;;;;4971422;28;20039;-76
2023/11/04 12:36:03;;;;;;;8.67;1.47;;;;;;;;;;4955210;29;20051;-77
2023/11/04 12:41:32;;;;;;;;;;;;;;;;;;4971332;29;20034;-77
2023/11/04 12:44:01;;;;;;;3.50;1.07;;;;;;;;;;4953746;29;19958;-77
2023/11/04 12:46:30;;;;;;;4.00;1.40;;;;;;;;;;4967494;29;21390;-84
2023/11/04 12:48:57;;;;;;;2.10;1.00;;;;;;;;;;4971402;29;20090;-76
2023/11/04 12:51:24;;;;;;;3.10;1.40;;;;;;;;;;4968252;29;20120;-78
2023/11/04 12:53:52;;;;;;;4.50;0.90;;;;;;;;;;4966638;28;20386;-79
2023/11/04 12:56:20;;;;;;;4.83;1.37;;;;;;;;;;4965284;29;20487;-79
2023/11/04 12:58:46;;;;;;;4.60;1.63;;;;;;;;;;4961946;29;20059;-78
2023/11/04 13:07:24;;;;;;;2.47;0.87;;;;;;;;;;4893042;29;20443;-77
2023/11/04 13:10:05;;;;;;;;;;;;;;;;;;;;;
2023/11/04 13:12:59;;;;;;;4.97;0.97;;;;;;;;;;4982944;28;20090;-77
2023/11/04 13:18:22;;;;;;;1.80;1.03;;;;;;;;;;4956596;28;20594;-77
2023/11/04 13:20:48;;;;;;;3.97;0.87;;;;;;;;;;4982447;28;20030;-75
2023/11/04 13:23:45;;;;;;;1.53;0.80;;;;;;;;;;4967338;28;20093;-78
2023/11/04 13:28:58;;;;;;;2.97;0.80;;;;;;;;;;5000047;28;20101;-79
2023/11/04 13:31:34;;;;;;;2.40;0.77;;;;;;;;;;4988962;28;20050;-75
2023/11/04 13:34:11;;;;;;;3.57;0.93;;;;;;;;;;4991472;28;20041;-76
2023/11/04 13:36:40;;;;;;;0.83;0.63;;;;;;;;;;4992106;28;20027;-77
2023/11/04 13:39:27;;;;;;;1.57;0.70;;;;;;;;;;4992698;28;20023;-79
2023/11/04 13:42:17;;;;;;;3.90;0.83;;;;;;;;;;4990609;28;20027;-80
2023/11/04 13:45:02;;;;;;;1.50;0.60;;;;;;;;;;4992281;28;20042;-75
2023/11/04 13:47:35;;;;;;;3.63;1.53;;;;;;;;;;4995610;28;20034;-76
2023/11/04 13:50:07;;;;;;;1.07;0.60;;;;;;;;;;4992825;28;20018;-77
2023/11/04 13:52:33;;;;;;;2.75;0.80;;;;;;;;;;5009101;28;20039;-76
2023/11/04 13:58:32;;;;;;;;;;;;;;;;;;;;;
2023/11/04 14:01:27;;;;;;;0.82;0.30;;;;;;;;;;5010396;28;20054;-80
2023/11/04 14:04:27;;;;;;;0.93;0.50;;;;;;;;;;5001272;28;20049;-76
2023/11/04 14:06:53;;;;;;;3.60;0.50;;;;;;;;;;4993295;28;20037;-76
2023/11/04 14:09:32;;;;;;;;;;;;;;;;;;;;;
2023/11/04 14:11:58;;;;;;;1.40;0.30;;;;;;;;;;5012108;28;20049;-78
2023/11/04 14:14:24;;;;;;;2.20;0.30;;;;;;;;;;4991947;28;20051;-77
2023/11/04 14:16:50;;;;;;;1.40;0.33;;;;;;;;;;4991566;28;20034;-77
2023/11/04 14:19:17;;;;;;;0.30;0.20;;;;;;;;;;4995039;28;20043;-77
2023/11/04 14:21:43;;;;;;;3.57;0.63;;;;;;;;;;4990465;28;21655;-78
2023/11/04 14:24:09;;;;;;;0.40;0.30;;;;;;;;;;4992904;28;20049;-77
2023/11/04 14:26:39;;;;;;;1.17;0.30;;;;;;;;;;5011096;28;20022;-77
2023/11/04 14:29:05;;;;;;;0.40;0.30;;;;;;;;;;4994282;28;20014;-78
2023/11/04 14:31:31;;;;;;;0.70;0.40;;;;;;;;;;4991678;28;20734;-79
2023/11/04 14:33:57;;;;;;;1.27;0.30;;;;;;;;;;4991479;28;20034;-80
2023/11/04 14:36:24;;;;;;;1.37;0.37;;;;;;;;;;4989796;28;20437;-80
2023/11/04 14:38:51;;;;;;;2.50;0.30;;;;;;;;;;4991866;28;20038;-80
2023/11/04 14:41:19;;;;;;;0.30;0.20;;;;;;;;;;5009488;28;20044;-78
2023/11/04 14:43:45;;;;;;;0.47;0.20;;;;;;;;;;4989270;28;20030;-82
2023/11/04 14:46:14;;;;;;;1.50;0.30;;;;;;;;;;4991387;28;20034;-78
2023/11/04 14:48:40;;;;;;;1.40;0.43;;;;;;;;;;4991103;28;20035;-78
2023/11/04 14:51:06;;;;;;;1.80;0.10;;;;;;;;;;5003799;28;20054;-77
2023/11/04 14:53:32;;;;;;;0.93;0.27;;;;;;;;;;4992027;28;20038;-78
2023/11/04 14:55:58;;;;;;;0.73;0.30;;;;;;;;;;4985416;28;20034;-77
2023/11/04 14:58:24;;;;;;;2.30;0.43;;;;;;;;;;5007235;28;20644;-76
2023/11/04 15:00:50;;;;;;;0.93;0.40;;;;;;;;;;5006662;28;20078;-81
2023/11/04 15:03:21;;;;;;;0.63;0.20;;;;;;;;;;4990226;28;20089;-79
2023/11/04 15:05:49;;;;;;;1.33;0.27;;;;;;;;;;4990674;28;20085;-77
2023/11/04 15:08:15;;;;;;;0.93;0.43;;;;;;;;;;5007986;28;20033;-80
2023/11/04 15:10:41;;;;;;;1.80;0.53;;;;;;;;;;4987847;28;20025;-81
2023/11/04 15:13:07;;;;;;;0.83;0.30;;;;;;;;;;5007125;28;20034;-79
2023/11/04 15:15:36;;;;;;;1.77;0.20;;;;;;;;;;4992828;28;20026;-80
2023/11/04 15:18:02;;;;;;;0.53;0.33;;;;;;;;;;5009518;28;20018;-77
2023/11/04 15:20:28;;;;;;;1.30;0.50;;;;;;;;;;4993826;28;20123;-77
2023/11/04 15:22:54;;;;;;;1.50;0.80;;;;;;;;;;5008738;28;20026;-77
2023/11/04 15:25:20;;;;;;;1.70;0.77;;;;;;;;;;4990520;28;20034;-77
2023/11/04 15:27:46;;;;;;;3.93;0.73;;;;;;;;;;4990162;28;20031;-78
2023/11/04 15:30:12;;;;;;;1.10;0.30;;;;;;;;;;4990752;28;20022;-78
2023/11/04 15:32:38;;;;;;;1.43;0.50;;;;;;;;;;4993026;28;20117;-76
2023/11/04 15:35:06;;;;;;;1.27;0.60;;;;;;;;;;4991155;28;20066;-76
2023/11/04 15:37:32;;;;;;;1.13;0.60;;;;;;;;;;5010573;28;20057;-78
2023/11/04 15:39:59;;;;;;;0.70;0.47;;;;;;;;;;4993138;28;20030;-76
2023/11/04 15:42:25;;;;;;;2.10;0.47;;;;;;;;;;5009925;28;20026;-77
2023/11/04 15:44:51;;;;;;;2.00;0.40;;;;;;;;;;4993147;28;20042;-79
2023/11/04 15:47:17;;;;;;;0.97;0.50;;;;;;;;;;5009570;28;20019;-76
2023/11/04 15:49:43;;;;;;;0.83;0.30;;;;;;;;;;5010480;28;20022;-77
2023/11/04 15:52:10;;;;;;;0.83;0.30;;;;;;;;;;4992942;28;20042;-76